createdAt,value
2023-02-27T00:00:17.176Z,22.98
2023-02-27T00:02:45.394Z,19.42
2023-02-27T00:05:13.090Z,19.67
2023-02-27T00:07:40.270Z,21.27
2023-02-27T00:10:08.914Z,16.08
2023-02-27T00:12:38.035Z,21.67
2023-02-27T00:15:11.381Z,25.00
2023-02-27T00:17:38.677Z,20.35
2023-02-27T00:20:07.377Z,22.70
2023-02-27T00:22:34.173Z,19.58
2023-02-27T00:25:01.000Z,15.80
2023-02-27T00:27:27.729Z,17.80
2023-02-27T00:29:54.522Z,24.20
2023-02-27T00:32:21.624Z,19.88
2023-02-27T00:34:48.821Z,17.65
2023-02-27T00:37:16.021Z,18.33
2023-02-27T00:39:43.021Z,21.48
2023-02-27T00:42:09.826Z,21.48
2023-02-27T00:44:37.435Z,21.48
2023-02-27T00:47:04.575Z,23.30
2023-02-27T00:49:31.305Z,17.80
2023-02-27T00:51:58.071Z,21.92
2023-02-27T00:54:25.033Z,19.27
2023-02-27T00:56:51.739Z,24.77
2023-02-27T00:59:18.503Z,19.52
2023-02-27T01:01:45.276Z,20.30
2023-02-27T01:04:12.123Z,22.05
2023-02-27T01:06:38.915Z,18.13
2023-02-27T01:09:06.091Z,20.77
2023-02-27T01:11:33.375Z,19.13
2023-02-27T01:14:00.513Z,21.80
2023-02-27T01:16:27.422Z,22.23
2023-02-27T01:18:54.470Z,18.73
2023-02-27T01:21:21.347Z,20.55
2023-02-27T01:23:48.081Z,19.20
2023-02-27T01:26:14.809Z,26.23
2023-02-27T01:28:41.569Z,19.58
2023-02-27T01:31:09.454Z,20.27
2023-02-27T01:33:36.241Z,17.48
2023-02-27T01:36:03.251Z,29.13
2023-02-27T01:38:30.040Z,18.17
2023-02-27T01:40:57.456Z,20.05
2023-02-27T01:43:24.574Z,23.63
2023-02-27T01:45:51.552Z,18.58
2023-02-27T01:48:30.993Z,22.63
2023-02-27T01:51:04.997Z,18.85
2023-02-27T01:53:34.485Z,21.63
2023-02-27T01:56:24.193Z,23.17
2023-02-27T01:58:53.894Z,23.42
2023-02-27T02:01:21.988Z,18.75
2023-02-27T02:04:13.774Z,28.85
2023-02-27T02:06:45.200Z,20.85
2023-02-27T02:11:40.384Z,26.13
2023-02-27T02:14:10.955Z,17.90
2023-02-27T02:16:56.646Z,22.30
2023-02-27T02:19:26.443Z,27.02
2023-02-27T02:22:40.490Z,21.50
2023-02-27T02:25:25.815Z,21.73
2023-02-27T02:28:14.163Z,25.98
2023-02-27T02:31:09.981Z,19.48
2023-02-27T02:33:55.320Z,26.10
2023-02-27T02:36:59.351Z,22.52
2023-02-27T02:39:39.577Z,21.77
2023-02-27T02:42:24.195Z,26.08
2023-02-27T02:45:18.259Z,21.23
2023-02-27T02:48:04.467Z,23.73
2023-02-27T02:50:44.859Z,20.80
2023-02-27T02:53:31.053Z,17.27
2023-02-27T02:56:25.202Z,31.88
2023-02-27T02:59:14.943Z,24.08
2023-02-27T03:01:57.755Z,26.88
2023-02-27T03:04:39.242Z,22.42
2023-02-27T03:09:46.463Z,24.50
2023-02-27T03:12:18.306Z,30.43
2023-02-27T03:14:55.522Z,22.73
2023-02-27T03:17:36.373Z,25.90
2023-02-27T03:20:08.609Z,24.67
2023-02-27T03:22:40.515Z,23.98
2023-02-27T03:25:11.020Z,15.43
2023-02-27T03:27:50.860Z,21.23
2023-02-27T03:30:45.381Z,25.08
2023-02-27T03:33:18.927Z,17.73
2023-02-27T03:35:57.818Z,21.85
2023-02-27T03:38:32.549Z,19.13
2023-02-27T03:41:15.224Z,18.00
2023-02-27T03:44:00.486Z,18.48
2023-02-27T03:46:28.346Z,20.52
2023-02-27T03:48:55.182Z,23.25
2023-02-27T03:51:24.642Z,15.40
2023-02-27T03:54:14.503Z,19.92
2023-02-27T03:56:44.300Z,14.35
2023-02-27T03:59:11.221Z,17.27
2023-02-27T04:01:38.029Z,16.17
2023-02-27T04:04:11.428Z,24.33
2023-02-27T04:07:05.463Z,17.25
2023-02-27T04:10:06.273Z,19.60
2023-02-27T04:12:59.657Z,19.67
2023-02-27T04:15:50.850Z,17.15
2023-02-27T04:18:23.164Z,16.25
2023-02-27T04:20:59.114Z,15.85
2023-02-27T04:23:41.214Z,19.70
2023-02-27T04:26:10.855Z,19.15
2023-02-27T04:28:46.064Z,14.18
2023-02-27T04:31:19.351Z,21.27
2023-02-27T04:34:00.989Z,11.82
2023-02-27T04:36:33.574Z,25.45
2023-02-27T04:39:10.546Z,20.35
2023-02-27T04:41:44.044Z,23.80
2023-02-27T04:44:14.124Z,23.35
2023-02-27T04:46:44.768Z,15.90
2023-02-27T04:49:20.353Z,18.63
2023-02-27T04:52:16.191Z,19.17
2023-02-27T04:54:53.016Z,22.23
2023-02-27T04:57:32.177Z,22.15
2023-02-27T05:00:02.471Z,24.92
2023-02-27T05:02:34.410Z,20.45
2023-02-27T05:05:06.466Z,28.20
2023-02-27T05:07:39.794Z,20.75
2023-02-27T05:10:13.599Z,26.63
2023-02-27T05:12:55.105Z,23.27
2023-02-27T05:17:55.292Z,17.80
2023-02-27T05:20:29.886Z,34.17
2023-02-27T05:23:00.921Z,20.90
2023-02-27T05:25:56.152Z,22.40
2023-02-27T05:28:55.275Z,20.35
2023-02-27T05:31:35.112Z,21.80
2023-02-27T05:34:12.416Z,15.98
2023-02-27T05:37:00.137Z,23.60
2023-02-27T05:39:32.822Z,21.10
2023-02-27T05:42:05.295Z,16.80
2023-02-27T05:44:36.393Z,24.13
2023-02-27T05:47:08.967Z,18.73
2023-02-27T05:49:44.266Z,18.20
2023-02-27T05:52:16.417Z,17.90
2023-02-27T05:55:31.472Z,20.17
2023-02-27T05:58:14.116Z,21.92
2023-02-27T06:00:46.338Z,12.48
2023-02-27T06:03:14.163Z,26.95
2023-02-27T06:05:43.229Z,19.08
2023-02-27T06:08:11.151Z,18.90
2023-02-27T06:10:38.163Z,17.65
2023-02-27T06:13:04.932Z,16.25
2023-02-27T06:15:31.724Z,24.35
2023-02-27T06:17:58.441Z,20.00
2023-02-27T06:20:25.232Z,19.00
2023-02-27T06:22:52.013Z,14.32
2023-02-27T06:25:18.910Z,14.88
2023-02-27T06:27:45.698Z,18.50
2023-02-27T06:30:12.834Z,11.80
2023-02-27T06:32:40.039Z,21.55
2023-02-27T06:35:07.559Z,16.35
2023-02-27T06:37:34.387Z,18.15
2023-02-27T06:40:01.148Z,18.98
2023-02-27T06:42:27.925Z,13.43
2023-02-27T06:44:55.252Z,18.65
2023-02-27T06:47:21.994Z,14.50
2023-02-27T06:49:49.216Z,16.15
2023-02-27T06:52:16.318Z,15.02
2023-02-27T06:54:43.062Z,16.75
2023-02-27T06:57:09.782Z,19.17
2023-02-27T06:59:36.591Z,15.40
2023-02-27T07:02:03.309Z,15.95
2023-02-27T07:04:30.063Z,17.92
2023-02-27T07:07:35.711Z,22.70
2023-02-27T07:09:43.562Z,22.40
2023-02-27T07:12:10.514Z,20.20
2023-02-27T07:14:37.342Z,21.33
2023-02-27T07:17:04.712Z,15.60
2023-02-27T07:19:33.824Z,24.90
2023-02-27T07:22:00.591Z,15.77
2023-02-27T07:24:27.385Z,26.83
2023-02-27T07:26:55.051Z,19.88
2023-02-27T07:29:21.991Z,19.15
2023-02-27T07:31:48.827Z,18.92
2023-02-27T07:34:15.884Z,16.33
2023-02-27T07:36:43.507Z,21.33
2023-02-27T07:39:12.624Z,25.45
2023-02-27T07:41:39.821Z,22.50
2023-02-27T07:44:08.679Z,13.50
2023-02-27T07:46:36.275Z,20.40
2023-02-27T07:49:03.456Z,15.45
2023-02-27T07:51:30.275Z,17.42
2023-02-27T07:54:00.041Z,22.95
2023-02-27T07:56:27.709Z,21.88
2023-02-27T07:58:54.899Z,21.27
2023-02-27T08:01:21.833Z,17.90
2023-02-27T08:03:48.678Z,28.35
2023-02-27T08:06:15.546Z,14.23
2023-02-27T08:08:42.366Z,17.35
2023-02-27T08:11:09.830Z,15.43
2023-02-27T08:16:23.485Z,17.65
2023-02-27T08:18:50.218Z,9.63
2023-02-27T08:21:17.032Z,16.10
2023-02-27T08:23:43.796Z,12.65
2023-02-27T08:26:10.903Z,16.20
2023-02-27T08:28:37.881Z,13.18
2023-02-27T08:31:04.792Z,10.80
2023-02-27T08:33:31.521Z,15.48
2023-02-27T08:35:58.362Z,11.50
2023-02-27T08:38:26.513Z,11.82
2023-02-27T08:40:53.595Z,13.45
2023-02-27T08:43:24.066Z,10.77
2023-02-27T08:45:51.861Z,11.80
2023-02-27T08:48:18.927Z,11.65
2023-02-27T08:50:46.986Z,10.13
2023-02-27T08:53:14.628Z,12.68
2023-02-27T08:55:42.732Z,14.60
2023-02-27T08:58:10.484Z,14.32
2023-02-27T09:00:37.452Z,11.55
2023-02-27T09:03:04.369Z,10.32
2023-02-27T09:05:34.121Z,13.27
2023-02-27T09:08:02.558Z,14.68
2023-02-27T09:10:29.350Z,14.02
2023-02-27T09:12:56.054Z,14.50
2023-02-27T09:15:22.925Z,16.25
2023-02-27T09:17:49.757Z,17.88
2023-02-27T09:20:16.689Z,13.82
2023-02-27T09:22:43.486Z,10.35
2023-02-27T09:25:10.226Z,12.90
2023-02-27T09:27:37.000Z,15.15
2023-02-27T09:30:04.222Z,18.27
2023-02-27T09:32:31.167Z,10.52
2023-02-27T09:34:58.465Z,12.93
2023-02-27T09:37:25.184Z,10.38
2023-02-27T09:39:52.185Z,12.80
2023-02-27T09:42:24.197Z,12.65
2023-02-27T09:45:05.734Z,16.48
2023-02-27T09:47:42.634Z,10.98
2023-02-27T09:50:44.821Z,13.88
2023-02-27T09:53:22.055Z,10.73
2023-02-27T09:55:50.462Z,8.50
2023-02-27T09:58:26.307Z,12.43
2023-02-27T10:00:58.993Z,9.35
2023-02-27T10:03:34.856Z,11.15
2023-02-27T10:06:13.230Z,13.40
2023-02-27T10:09:09.550Z,10.02
2023-02-27T10:12:19.862Z,11.80
2023-02-27T10:15:03.103Z,8.65
2023-02-27T10:17:56.780Z,9.50
2023-02-27T10:20:30.928Z,15.73
2023-02-27T10:23:01.906Z,10.13
2023-02-27T10:25:32.002Z,8.13
2023-02-27T10:28:11.331Z,11.33
2023-02-27T10:30:38.164Z,14.38
2023-02-27T10:33:28.261Z,9.38
2023-02-27T10:35:55.468Z,14.68
2023-02-27T10:38:44.954Z,11.25
2023-02-27T10:41:14.862Z,12.95
2023-02-27T10:43:42.366Z,8.23
2023-02-27T10:46:16.089Z,7.93
2023-02-27T10:48:43.435Z,7.38
2023-02-27T10:51:35.126Z,8.63
2023-02-27T10:54:31.996Z,8.48
2023-02-27T10:57:02.589Z,7.97
2023-02-27T10:59:33.753Z,13.80
2023-02-27T11:02:04.738Z,7.85
2023-02-27T11:04:35.683Z,9.85
2023-02-27T11:07:09.881Z,12.07
2023-02-27T11:09:37.606Z,11.60
2023-02-27T11:12:26.270Z,10.52
2023-02-27T11:14:55.766Z,7.97
2023-02-27T11:17:34.275Z,7.20
2023-02-27T11:20:06.172Z,7.38
2023-02-27T11:22:33.717Z,7.80
2023-02-27T11:25:18.908Z,7.93
2023-02-27T11:27:46.651Z,9.05
2023-02-27T11:30:28.906Z,12.13
2023-02-27T11:32:59.066Z,8.10
2023-02-27T11:35:31.892Z,7.57
2023-02-27T11:38:07.339Z,10.75
2023-02-27T11:40:41.246Z,6.55
2023-02-27T11:43:20.734Z,8.52
2023-02-27T11:46:21.394Z,7.53
2023-02-27T11:49:26.573Z,11.57
2023-02-27T11:52:47.215Z,8.13
2023-02-27T11:55:21.922Z,9.43
2023-02-27T11:57:54.664Z,8.85
2023-02-27T12:00:39.853Z,9.00
2023-02-27T12:03:34.223Z,10.75
2023-02-27T12:06:04.991Z,8.85
2023-02-27T12:09:01.000Z,7.90
2023-02-27T12:11:35.504Z,7.85
2023-02-27T12:14:21.512Z,7.78
2023-02-27T12:17:02.256Z,11.65
2023-02-27T12:19:42.013Z,9.52
2023-02-27T12:22:23.151Z,7.07
2023-02-27T12:24:56.100Z,10.25
2023-02-27T12:27:38.091Z,9.00
2023-02-27T12:30:16.317Z,7.93
2023-02-27T12:33:03.965Z,8.98
2023-02-27T12:35:35.047Z,12.40
2023-02-27T12:38:02.974Z,10.60
2023-02-27T12:41:23.571Z,9.75
2023-02-27T12:44:21.697Z,7.53
2023-02-27T12:47:05.592Z,6.95
2023-02-27T12:49:42.681Z,7.90
2023-02-27T12:52:38.537Z,8.70
2023-02-27T12:55:12.558Z,6.75
2023-02-27T12:58:04.874Z,11.48
2023-02-27T13:00:46.387Z,7.93
2023-02-27T13:03:21.273Z,7.40
2023-02-27T13:05:59.384Z,7.65
2023-02-27T13:08:38.347Z,10.90
2023-02-27T13:11:21.847Z,6.60
2023-02-27T13:14:31.481Z,7.32
2023-02-27T13:17:21.008Z,8.57
2023-02-27T13:19:55.644Z,6.85
2023-02-27T13:22:44.707Z,7.47
2023-02-27T13:25:16.055Z,6.50
2023-02-27T13:30:24.354Z,6.80
2023-02-27T13:33:15.855Z,6.38
2023-02-27T13:38:43.624Z,7.25
2023-02-27T13:41:25.603Z,6.70
2023-02-27T13:44:01.416Z,6.97
2023-02-27T13:46:28.458Z,7.22
2023-02-27T13:49:06.011Z,7.10
2023-02-27T13:51:35.846Z,7.03
2023-02-27T13:54:14.629Z,7.28
2023-02-27T13:56:59.136Z,7.10
2023-02-27T13:59:41.145Z,7.72
2023-02-27T14:02:13.272Z,7.47
2023-02-27T14:04:53.033Z,7.38
2023-02-27T14:07:23.800Z,7.70
2023-02-27T14:10:00.374Z,10.82
2023-02-27T14:12:42.579Z,10.43
2023-02-27T14:15:23.230Z,7.60
2023-02-27T14:18:02.379Z,6.70
2023-02-27T14:20:39.383Z,7.53
2023-02-27T14:23:15.536Z,7.18
2023-02-27T14:26:02.226Z,7.18
2023-02-27T14:28:54.153Z,7.43
2023-02-27T14:31:36.854Z,7.18
2023-02-27T14:34:09.299Z,7.35
2023-02-27T14:36:46.620Z,7.25
2023-02-27T14:39:27.936Z,8.40
2023-02-27T14:42:15.593Z,7.80
2023-02-27T14:44:48.076Z,7.60
2023-02-27T14:47:17.583Z,7.40
2023-02-27T14:49:47.410Z,6.97
2023-02-27T14:52:18.699Z,9.85
2023-02-27T14:57:26.695Z,9.05
2023-02-27T15:02:23.910Z,6.93
2023-02-27T15:05:13.710Z,7.70
2023-02-27T15:07:40.793Z,7.88
2023-02-27T15:10:09.836Z,9.57
2023-02-27T15:12:40.267Z,9.43
2023-02-27T15:15:09.869Z,8.70
2023-02-27T15:17:39.825Z,8.55
2023-02-27T15:20:36.011Z,7.50
2023-02-27T15:23:26.209Z,8.15
2023-02-27T15:25:58.700Z,7.32
2023-02-27T15:28:32.179Z,7.45
2023-02-27T15:30:59.139Z,8.48
2023-02-27T15:33:30.852Z,6.55
2023-02-27T15:35:59.423Z,6.90
2023-02-27T15:38:35.199Z,8.20
2023-02-27T15:41:04.164Z,13.40
2023-02-27T15:43:31.879Z,6.85
2023-02-27T15:45:59.051Z,7.20
2023-02-27T15:48:26.309Z,8.88
2023-02-27T15:51:02.397Z,10.65
2023-02-27T15:53:30.946Z,7.45
2023-02-27T15:56:00.905Z,7.45
2023-02-27T15:58:35.175Z,7.57
2023-02-27T16:01:05.531Z,7.35
2023-02-27T16:03:45.728Z,7.90
2023-02-27T16:06:21.813Z,7.90
2023-02-27T16:08:53.142Z,7.72
2023-02-27T16:13:52.259Z,8.23
2023-02-27T16:16:22.060Z,8.43
2023-02-27T16:18:54.073Z,8.85
2023-02-27T16:21:23.326Z,8.25
2023-02-27T16:23:51.225Z,8.13
2023-02-27T16:26:31.541Z,8.23
2023-02-27T16:29:20.777Z,8.10
2023-02-27T16:31:53.792Z,9.90
2023-02-27T16:34:44.311Z,8.52
2023-02-27T16:37:22.029Z,9.27
2023-02-27T16:39:54.948Z,8.55
2023-02-27T16:42:22.160Z,10.85
2023-02-27T16:44:48.972Z,9.45
2023-02-27T16:47:15.775Z,8.90
2023-02-27T16:49:44.612Z,9.18
2023-02-27T16:52:11.941Z,12.60
2023-02-27T16:54:38.858Z,11.23
2023-02-27T16:57:05.833Z,9.27
2023-02-27T16:59:36.230Z,8.48
2023-02-27T17:02:05.934Z,7.95
2023-02-27T17:04:32.776Z,8.65
2023-02-27T17:07:01.646Z,10.02
2023-02-27T17:09:29.488Z,13.05
2023-02-27T17:11:57.740Z,10.40
2023-02-27T17:14:24.867Z,9.00
2023-02-27T17:16:51.925Z,7.60
2023-02-27T17:19:21.538Z,12.95
2023-02-27T17:21:49.142Z,9.77
2023-02-27T17:24:16.021Z,13.57
2023-02-27T17:26:42.814Z,9.80
2023-02-27T17:29:09.852Z,9.35
2023-02-27T17:31:37.302Z,11.98
2023-02-27T17:34:05.648Z,10.05
2023-02-27T17:36:32.616Z,11.20
2023-02-27T17:39:01.026Z,8.57
2023-02-27T17:41:28.913Z,8.32
2023-02-27T17:43:57.840Z,9.05
2023-02-27T17:46:27.337Z,10.52
2023-02-27T17:48:56.379Z,9.50
2023-02-27T17:51:23.202Z,11.60
2023-02-27T17:53:50.028Z,9.13
2023-02-27T17:56:16.760Z,7.80
2023-02-27T17:58:45.612Z,7.72
2023-02-27T18:01:24.775Z,8.02
2023-02-27T18:03:55.807Z,9.68
2023-02-27T18:06:23.615Z,7.18
2023-02-27T18:08:50.970Z,6.93
2023-02-27T18:11:20.652Z,7.38
2023-02-27T18:13:48.480Z,8.70
2023-02-27T18:16:15.785Z,10.65
2023-02-27T18:18:43.241Z,9.88
2023-02-27T18:21:17.103Z,8.35
2023-02-27T18:23:44.394Z,9.82
2023-02-27T18:26:29.368Z,11.07
2023-02-27T18:29:05.649Z,8.88
2023-02-27T18:31:42.899Z,10.68
2023-02-27T18:34:10.661Z,11.20
2023-02-27T18:36:38.266Z,14.55
2023-02-27T18:39:06.513Z,13.05
2023-02-27T18:41:33.840Z,11.45
2023-02-27T18:44:00.886Z,12.23
2023-02-27T18:46:28.582Z,13.63
2023-02-27T18:48:55.634Z,19.40
2023-02-27T18:51:22.460Z,22.17
2023-02-27T18:53:50.455Z,17.85
2023-02-27T18:56:20.482Z,15.77
2023-02-27T18:58:47.350Z,11.43
2023-02-27T19:01:26.824Z,8.20
2023-02-27T19:03:56.378Z,8.55
2023-02-27T19:06:23.165Z,12.23
2023-02-27T19:08:49.971Z,7.85
2023-02-27T19:11:35.647Z,8.95
2023-02-27T19:14:12.156Z,16.30
2023-02-27T19:16:39.040Z,14.73
2023-02-27T19:19:07.668Z,6.55
2023-02-27T19:21:35.294Z,6.35
2023-02-27T19:24:02.955Z,9.75
2023-02-27T19:26:31.910Z,18.10
2023-02-27T19:28:58.754Z,11.32
2023-02-27T19:31:25.747Z,16.67
2023-02-27T19:33:52.877Z,14.40
2023-02-27T19:36:21.202Z,14.00
2023-02-27T19:38:48.835Z,12.02
2023-02-27T19:41:17.010Z,11.63
2023-02-27T19:43:44.510Z,13.45
2023-02-27T19:46:17.948Z,12.48
2023-02-27T19:48:45.440Z,10.98
2023-02-27T19:51:14.108Z,12.18
2023-02-27T19:53:42.580Z,11.57
2023-02-27T19:56:14.565Z,11.90
2023-02-27T19:58:41.284Z,15.30
2023-02-27T20:01:08.382Z,9.27
2023-02-27T20:03:35.681Z,9.45
2023-02-27T20:06:06.588Z,8.35
2023-02-27T20:08:34.365Z,9.60
2023-02-27T20:11:04.152Z,10.43
2023-02-27T20:13:31.194Z,9.63
2023-02-27T20:16:02.546Z,10.38
2023-02-27T20:21:01.932Z,13.57
2023-02-27T20:23:28.974Z,10.05
2023-02-27T20:25:56.196Z,12.65
2023-02-27T20:28:23.417Z,11.05
2023-02-27T20:30:50.205Z,8.82
2023-02-27T20:33:17.010Z,9.00
2023-02-27T20:35:43.813Z,12.20
2023-02-27T20:38:10.904Z,11.20
2023-02-27T20:40:37.665Z,13.65
2023-02-27T20:43:04.499Z,10.10
2023-02-27T20:45:31.408Z,8.65
2023-02-27T20:47:58.153Z,10.52
2023-02-27T20:50:24.860Z,7.45
2023-02-27T20:52:55.311Z,9.55
2023-02-27T20:55:22.155Z,6.13
2023-02-27T20:57:48.968Z,6.70
2023-02-27T21:00:16.094Z,7.70
2023-02-27T21:02:42.842Z,7.88
2023-02-27T21:05:09.884Z,9.93
2023-02-27T21:07:36.740Z,8.25
2023-02-27T21:10:03.701Z,8.90
2023-02-27T21:12:30.616Z,10.30
2023-02-27T21:14:57.399Z,16.20
2023-02-27T21:17:26.230Z,10.57
2023-02-27T21:19:52.973Z,8.07
2023-02-27T21:22:19.727Z,8.82
2023-02-27T21:24:48.898Z,10.38
2023-02-27T21:27:19.824Z,8.80
2023-02-27T21:29:47.068Z,8.32
2023-02-27T21:32:13.910Z,9.88
2023-02-27T21:34:40.799Z,9.65
2023-02-27T21:37:10.025Z,9.40
2023-02-27T21:39:36.827Z,10.35
2023-02-27T21:42:03.834Z,14.35
2023-02-27T21:44:32.048Z,9.73
2023-02-27T21:46:58.849Z,8.40
2023-02-27T21:49:28.429Z,10.20
2023-02-27T21:51:55.427Z,10.63
2023-02-27T21:54:22.186Z,8.90
2023-02-27T21:56:50.038Z,10.32
2023-02-27T21:59:19.159Z,11.65
2023-02-27T22:01:47.644Z,10.32
2023-02-27T22:04:16.052Z,10.88
2023-02-27T22:06:43.002Z,9.90
2023-02-27T22:09:09.829Z,9.00
2023-02-27T22:11:36.685Z,10.60
2023-02-27T22:14:05.730Z,8.95
2023-02-27T22:16:32.584Z,8.60
2023-02-27T22:18:59.387Z,8.82
2023-02-27T22:21:27.769Z,11.02
2023-02-27T22:23:57.834Z,9.88
2023-02-27T22:26:28.322Z,8.45
2023-02-27T22:28:58.954Z,6.73
2023-02-27T22:31:31.983Z,12.13
2023-02-27T22:34:02.405Z,7.60
2023-02-27T22:36:30.779Z,10.70
2023-02-27T22:38:57.788Z,7.20
2023-02-27T22:41:28.064Z,9.35
2023-02-27T22:43:55.591Z,11.07
2023-02-27T22:46:28.545Z,7.53
2023-02-27T22:49:11.296Z,7.50
2023-02-27T22:51:38.206Z,7.80
2023-02-27T22:54:06.724Z,8.55
2023-02-27T22:56:34.430Z,13.25
2023-02-27T22:59:01.343Z,9.85
2023-02-27T23:01:31.878Z,8.00
2023-02-27T23:04:01.361Z,9.45
2023-02-27T23:06:33.774Z,8.27
2023-02-27T23:09:01.746Z,13.30
2023-02-27T23:11:28.828Z,13.43
2023-02-27T23:13:56.118Z,13.27
2023-02-27T23:16:23.524Z,12.02
2023-02-27T23:18:54.463Z,9.80
2023-02-27T23:21:24.251Z,14.25
2023-02-27T23:23:53.939Z,10.27
2023-02-27T23:26:21.245Z,9.55
2023-02-27T23:28:48.053Z,10.30
2023-02-27T23:31:15.067Z,15.82
2023-02-27T23:33:41.874Z,19.15
2023-02-27T23:36:09.073Z,17.65
2023-02-27T23:38:35.881Z,16.42
2023-02-27T23:41:09.955Z,12.65
2023-02-27T23:43:55.215Z,14.65
2023-02-27T23:46:22.330Z,10.40
2023-02-27T23:48:49.315Z,13.98
2023-02-27T23:51:16.111Z,10.13
2023-02-27T23:53:43.090Z,9.55
2023-02-27T23:56:19.348Z,12.63
2023-02-27T23:58:47.891Z,14.48
